METAR AND TAF INFORMATION
METAR FOR DAAT
ADDS - METARS form results

(1919 UTC 26 April 2018)
Data provider http://aviationweather.gov/adds/metars/
 
METAR text: DAAT 261900Z 28016KT CAVOK 30/// Q1017
Conditions at: DAAT (TAMANRASSET/AGUE, DZ) observed 1900 UTC 26 April 2018
Temperature: missing
Dewpoint: missing
Pressure (altimeter): 30.03 inches Hg (1017.0 mb)
Winds: from the W (280 degrees) at 18 MPH (16 knots; 8.3 m/s)
Visibility: 6 or more miles (10+ km)
Ceiling: ceiling and visibility are OK
Clouds: unknown
Weather: no significant weather observed at this time

METAR text: DAAT 261830Z 27014KT CAVOK 30/// Q1017
Conditions at: DAAT (TAMANRASSET/AGUE, DZ) observed 1830 UTC 26 April 2018
Temperature: missing
Dewpoint: missing
Pressure (altimeter): 30.03 inches Hg (1017.0 mb)
Winds: from the W (270 degrees) at 16 MPH (14 knots; 7.3 m/s)
Visibility: 6 or more miles (10+ km)
Ceiling: ceiling and visibility are OK
Clouds: unknown
Weather: no significant weather observed at this time

Forecast for: DAAT (TAMANRASSET/AGUE, DZ)
Text: TAF DAAT 261700Z 2618/2718 27015KT 8000 NSC
Forecast period: 1800 to 2000 UTC 26 April 2018
Forecast type: FROM: standard forecast or significant change
Winds: from the W (270 degrees) at 17 MPH (15 knots; 7.8 m/s)
Visibility: 5 miles (8 km)
Clouds: not forecast
Weather: no significant weather forecast for this period
Forecast for: DAAT (TAMANRASSET/AGUE, DZ)
Text: TAF DAAT 261700Z 2618/2718 27015KT 8000 NSC
Forecast period: 1800 to 2000 UTC 26 April 2018
Forecast type: FROM: standard forecast or significant change
Winds: from the W (270 degrees) at 17 MPH (15 knots; 7.8 m/s)
Visibility: 5 miles (8 km)
Clouds: not forecast
Weather: no significant weather forecast for this period
Forecast for: DAAT (TAMANRASSET/AGUE, DZ)
Text: TAF DAAT 261700Z 2618/2718 27015KT 8000 NSC
Forecast period: 1800 to 2200 UTC 26 April 2018
Forecast type: TEMPORARY: The following changes expected for less than half the time period
Visibility: 2.49 miles (4.01 km)
Weather: HZ  (haze)
Forecast for: DAAT (TAMANRASSET/AGUE, DZ)
Text: TAF DAAT 261700Z 2618/2718 27015KT 8000 NSC
Forecast period: 1800 to 2200 UTC 26 April 2018
Forecast type: TEMPORARY: The following changes expected for less than half the time period
Visibility: 2.49 miles (4.01 km)
Weather: HZ  (haze)
Forecast for: DAAT (TAMANRASSET/AGUE, DZ)
Text: TAF DAAT 261700Z 2618/2718 27015KT 8000 NSC
Forecast period: 2000 UTC 26 April 2018 to 0800 UTC 27 April 2018
Forecast type: BECOMING: Conditions expected to become as follows by 0000 UTC 27 April 2018
Winds: from the NNW (340 degrees) at 14 MPH (12 knots; 6.2 m/s)
Visibility: 5 miles (8 km)
Weather: no significant weather forecast for this period
Forecast for: DAAT (TAMANRASSET/AGUE, DZ)
Text: TAF DAAT 261700Z 2618/2718 27015KT 8000 NSC
Forecast period: 2000 UTC 26 April 2018 to 0800 UTC 27 April 2018
Forecast type: BECOMING: Conditions expected to become as follows by 0000 UTC 27 April 2018
Winds: from the NNW (340 degrees) at 14 MPH (12 knots; 6.2 m/s)
Visibility: 5 miles (8 km)
Weather: no significant weather forecast for this period
Forecast for: DAAT (TAMANRASSET/AGUE, DZ)
Text: TAF DAAT 261700Z 2618/2718 27015KT 8000 NSC
Forecast period: 0800 to 1800 UTC 27 April 2018
Forecast type: BECOMING: Conditions expected to become as follows by 1100 UTC 27 April 2018
Winds: from the W (280 degrees) at 14 MPH (12 knots; 6.2 m/s)
Visibility: 5 miles (8 km)
Weather: no significant weather forecast for this period
Forecast for: DAAT (TAMANRASSET/AGUE, DZ)
Text: TAF DAAT 261700Z 2618/2718 27015KT 8000 NSC
Forecast period: 0800 to 1800 UTC 27 April 2018
Forecast type: BECOMING: Conditions expected to become as follows by 1100 UTC 27 April 2018
Winds: from the W (280 degrees) at 14 MPH (12 knots; 6.2 m/s)
Visibility: 5 miles (8 km)
Weather: no significant weather forecast for this period
Forecast for: DAAT (TAMANRASSET/AGUE, DZ)
Text: TAF DAAT 261700Z 2618/2718 27015KT 8000 NSC
Forecast period: 1100 to 1800 UTC 27 April 2018
Forecast type: TEMPORARY: The following changes expected for less than half the time period
Winds: from the W (280 degrees) at 21 MPH (18 knots; 9.4 m/s)
gusting to 32 MPH (28 knots; 14.6 m/s)
Visibility: 3 miles (5 km)
Weather: DRSA  (low drifting sand)
Forecast for: DAAT (TAMANRASSET/AGUE, DZ)
Text: TAF DAAT 261700Z 2618/2718 27015KT 8000 NSC
Forecast period: 1100 to 1800 UTC 27 April 2018
Forecast type: TEMPORARY: The following changes expected for less than half the time period
Winds: from the W (280 degrees) at 21 MPH (18 knots; 9.4 m/s)
gusting to 32 MPH (28 knots; 14.6 m/s)
Visibility: 3 miles (5 km)
Weather: DRSA  (low drifting sand)

 AIRPORT MAP

 RUNWAY INFORMATION
Runway 02 Runway length 11811 ft Runway width 148 ft
Runway elevation 4459 ft Runway displaced threshold 0 ft Runway heading 22
Runway 20 Runway length 11811 ft Runway width 148 ft
Runway elevation 4518 ft Runway displaced threshold 0 ft Runway heading 202
Runway 08 Runway length 10171 ft Runway width 148 ft
Runway elevation 4465 ft Runway displaced threshold 0 ft Runway heading 82
Runway 26 Runway length 10171 ft Runway width 148 ft
Runway elevation 4472 ft Runway displaced threshold 0 ft Runway heading 262

 AIRPORT FREQUENCIES
Type RDO Name RDO Frequency 119.7 MHZ
Type TWR Name TWR Frequency 118.1 MHZ

 AIRPORT NEAR NAVIGATION AIDS
Type NDB Name Tamanrasset Frequency 358 KHZ
Type VOR-DME Name Tamanrasset Frequency 112500 KHZ



v2.6.1